Time;durP1;ratioP1;P1;durP2;ratioP2;P2;SDS_P1;SDS_P2;PMS_P1;PMS_P2;Temp;Humidity;BMP_temperature;BMP_pressure;BME280_temperature;BME280_humidity;BME280_pressure;Samples;Min_cycle;Max_cycle;Signal;HPM_P1;HPM_P2
2023/04/03 00:01:16;;;;;;;1.80;1.70;;;;;;;-0.39;100.00;99259.94;5139518;28;20338;-63
2023/04/03 00:03:42;;;;;;;1.65;1.55;;;;;;;-0.39;100.00;99280.69;5139374;28;20065;-61
2023/04/03 00:06:10;;;;;;;1.48;1.20;;;;;;;-0.28;100.00;99311.78;5139354;27;20310;-63
2023/04/03 00:08:37;;;;;;;1.52;1.42;;;;;;;-0.45;100.00;99296.13;5139044;27;20393;-59
2023/04/03 00:11:05;;;;;;;1.75;1.65;;;;;;;-0.39;100.00;99313.03;5139320;28;20043;-63
2023/04/03 00:13:31;;;;;;;2.45;1.70;;;;;;;-0.36;100.00;99315.13;5139219;28;20129;-58
2023/04/03 00:15:57;;;;;;;1.98;1.70;;;;;;;-0.34;100.00;99286.81;5139030;28;20473;-58
2023/04/03 00:18:23;;;;;;;3.20;1.83;;;;;;;-0.29;100.00;99288.63;5139342;28;20141;-56
2023/04/03 00:20:49;;;;;;;2.55;1.83;;;;;;;-0.63;100.00;99273.47;5138950;28;20100;-59
2023/04/03 00:23:16;;;;;;;2.65;1.98;;;;;;;-0.38;100.00;99269.63;5139433;28;20138;-57
2023/04/03 00:25:42;;;;;;;1.60;1.50;;;;;;;-0.49;100.00;99230.47;5138913;28;20087;-64
2023/04/03 00:28:08;;;;;;;1.40;1.30;;;;;;;-0.41;100.00;99237.06;5139344;28;20078;-64
2023/04/03 00:30:35;;;;;;;1.10;1.10;;;;;;;-0.42;100.00;99200.47;5139077;28;20320;-58
2023/04/03 00:33:01;;;;;;;2.88;1.30;;;;;;;-0.54;100.00;99182.03;5139023;28;20047;-64
2023/04/03 00:35:28;;;;;;;1.75;1.50;;;;;;;-0.65;100.00;99130.22;5138747;27;20057;-63
2023/04/03 00:37:55;;;;;;;1.73;1.60;;;;;;;-0.25;100.00;99082.22;5138933;28;20059;-56
2023/04/03 00:40:23;;;;;;;1.40;1.30;;;;;;;-0.26;100.00;99061.75;5139116;28;20059;-63
2023/04/03 00:42:52;;;;;;;4.18;1.80;;;;;;;-0.41;100.00;99035.06;5138876;28;20050;-58
2023/04/03 00:45:34;;;;;;;1.25;1.23;;;;;;;-0.40;100.00;99033.97;5142709;28;20294;-59
2023/04/03 00:48:01;;;;;;;4.43;1.33;;;;;;;-0.46;100.00;99002.84;5140970;28;20057;-61
2023/04/03 00:50:28;;;;;;;2.45;1.50;;;;;;;-0.61;100.00;98996.63;5139098;28;20083;-59
2023/04/03 00:52:56;;;;;;;1.80;1.30;;;;;;;-0.51;100.00;98957.94;5138494;28;20078;-61
2023/04/03 00:55:22;;;;;;;1.88;1.50;;;;;;;-0.53;100.00;98925.94;5138627;28;20157;-64
2023/04/03 00:57:49;;;;;;;1.67;1.58;;;;;;;-0.66;100.00;98912.47;5138713;28;20054;-63
2023/04/03 01:00:20;;;;;;;1.52;1.42;;;;;;;-0.58;100.00;98958.34;5138607;28;20058;-58
2023/04/03 01:02:46;;;;;;;2.15;1.50;;;;;;;-0.54;100.00;98943.19;5138453;28;20051;-63
2023/04/03 01:05:13;;;;;;;1.60;1.50;;;;;;;-0.69;100.00;98886.94;5138371;27;20055;-61
2023/04/03 01:07:39;;;;;;;1.48;1.38;;;;;;;-0.50;100.00;98908.38;5138346;28;20055;-57
2023/04/03 01:10:08;;;;;;;1.23;1.23;;;;;;;-0.56;100.00;98896.91;5138309;28;20133;-59
2023/04/03 01:12:36;;;;;;;3.55;1.73;;;;;;;-0.56;100.00;98896.13;5138493;28;20047;-56
2023/04/03 01:15:04;;;;;;;3.08;1.52;;;;;;;-0.42;100.00;98906.91;5138202;28;20146;-57
2023/04/03 01:17:32;;;;;;;2.28;1.92;;;;;;;-0.63;100.00;98911.84;5138485;28;20412;-60
2023/04/03 01:20:26;;;;;;;1.40;1.30;;;;;;;-0.65;100.00;98947.16;5137527;27;20378;-60
2023/04/03 01:22:59;;;;;;;2.53;1.80;;;;;;;-0.58;100.00;98961.03;5137162;28;20055;-63
2023/04/03 01:25:26;;;;;;;4.15;2.15;;;;;;;-0.74;100.00;99002.75;5138222;28;20047;-60
2023/04/03 01:27:53;;;;;;;3.55;1.95;;;;;;;-0.75;100.00;99058.50;5137901;28;20138;-61
2023/04/03 01:30:23;;;;;;;1.58;1.38;;;;;;;-0.86;100.00;99080.47;5138199;28;20047;-64
2023/04/03 01:32:50;;;;;;;1.77;1.67;;;;;;;-0.58;100.00;99111.00;5137907;28;20137;-64
2023/04/03 01:35:16;;;;;;;2.22;1.55;;;;;;;-0.58;100.00;99132.56;5138223;27;20362;-61
2023/04/03 01:37:42;;;;;;;1.80;1.55;;;;;;;-0.42;100.00;99182.41;5137745;28;20057;-63
2023/04/03 01:40:09;;;;;;;1.88;1.77;;;;;;;-0.50;100.00;99183.88;5138211;28;20077;-64
2023/04/03 01:42:35;;;;;;;2.78;1.95;;;;;;;-0.67;100.00;99212.38;5137931;28;20073;-61
2023/04/03 01:45:01;;;;;;;2.60;1.90;;;;;;;-0.61;100.00;99244.34;5137682;28;20142;-57
2023/04/03 01:47:26;;;;;;;2.63;1.90;;;;;;;-0.60;100.00;99256.72;5137924;28;20047;-56
2023/04/03 01:49:53;;;;;;;1.40;1.30;;;;;;;-0.52;100.00;99264.16;5137816;28;20099;-58
2023/04/03 01:52:19;;;;;;;1.70;1.60;;;;;;;-0.57;100.00;99261.50;5137881;28;20042;-55
2023/04/03 01:54:45;;;;;;;2.17;1.77;;;;;;;-0.41;100.00;99290.94;5137674;28;20328;-59
2023/04/03 01:57:11;;;;;;;3.15;1.52;;;;;;;-0.46;100.00;99272.19;5137810;28;20055;-60
2023/04/03 01:59:37;;;;;;;1.95;1.70;;;;;;;-0.59;100.00;99281.75;5137461;28;20057;-60
2023/04/03 02:02:03;;;;;;;2.35;1.90;;;;;;;-0.40;100.00;99311.41;5137849;28;20138;-60
2023/04/03 02:04:29;;;;;;;1.65;1.55;;;;;;;-0.50;100.00;99296.16;5137314;27;20050;-57
2023/04/03 02:06:55;;;;;;;3.35;1.85;;;;;;;-0.44;100.00;99265.38;5137322;28;20111;-56
2023/04/03 02:09:21;;;;;;;3.03;2.28;;;;;;;-0.57;100.00;99255.31;5137266;28;20055;-56
2023/04/03 02:11:47;;;;;;;1.52;1.42;;;;;;;-0.48;100.00;99213.19;5137287;28;20138;-59
2023/04/03 02:14:13;;;;;;;5.78;2.20;;;;;;;-0.49;100.00;99217.00;5137518;28;20050;-61
2023/04/03 02:16:39;;;;;;;1.70;1.48;;;;;;;-0.44;100.00;99187.28;5137384;28;20138;-64
2023/04/03 02:19:06;;;;;;;2.30;1.52;;;;;;;-0.56;100.00;99117.72;5137574;28;20051;-60
2023/04/03 02:21:32;;;;;;;1.52;1.42;;;;;;;-0.67;100.00;99057.03;5137325;28;20134;-56
2023/04/03 02:23:59;;;;;;;1.08;0.98;;;;;;;-0.57;100.00;99024.53;5137394;28;20461;-64
2023/04/03 02:26:25;;;;;;;2.15;1.15;;;;;;;-0.64;100.00;99032.19;5137252;28;20388;-61
2023/04/03 02:28:51;;;;;;;1.40;1.30;;;;;;;-0.57;100.00;99023.75;5137438;28;20051;-55
2023/04/03 02:31:18;;;;;;;1.38;1.27;;;;;;;-0.65;100.00;99010.97;5138466;27;20047;-58
2023/04/03 02:33:43;;;;;;;1.52;1.33;;;;;;;-0.89;100.00;98951.88;5141141;28;20047;-58
2023/04/03 02:36:09;;;;;;;2.28;1.45;;;;;;;-0.96;100.00;98961.13;5140610;27;20126;-56
2023/04/03 02:38:36;;;;;;;3.85;1.58;;;;;;;-0.95;100.00;98975.38;5141048;28;20161;-61
2023/04/03 02:41:04;;;;;;;1.80;1.65;;;;;;;-1.05;100.00;98981.72;5140642;28;20310;-58
2023/04/03 02:43:30;;;;;;;1.05;1.05;;;;;;;-1.12;100.00;98981.28;5140731;28;20055;-57
2023/04/03 02:45:56;;;;;;;1.50;1.40;;;;;;;-1.08;100.00;99009.19;5140857;28;20047;-61
2023/04/03 02:48:22;;;;;;;5.97;1.52;;;;;;;-1.18;100.00;99017.41;5140434;28;20051;-61
2023/04/03 02:50:49;;;;;;;1.42;1.25;;;;;;;-1.09;100.00;98991.47;5140873;28;20474;-59
2023/04/03 02:53:15;;;;;;;1.70;1.58;;;;;;;-1.12;100.00;99028.91;5140432;28;20048;-62
2023/04/03 02:55:41;;;;;;;3.05;1.33;;;;;;;-0.91;100.00;99050.94;5140666;28;20059;-56
2023/04/03 02:58:07;;;;;;;1.38;1.27;;;;;;;-0.99;100.00;98998.59;5140463;28;20058;-61
2023/04/03 03:00:34;;;;;;;1.27;1.15;;;;;;;-1.07;100.00;99000.03;5140728;28;20053;-58
2023/04/03 03:03:00;;;;;;;1.55;1.20;;;;;;;-1.17;100.00;99005.56;5140360;28;20055;-58
2023/04/03 03:05:27;;;;;;;1.63;1.45;;;;;;;-0.96;100.00;99024.91;5140171;27;20473;-56
2023/04/03 03:07:53;;;;;;;3.15;1.67;;;;;;;-0.99;100.00;98977.84;5140107;28;20112;-59
2023/04/03 03:10:19;;;;;;;2.83;1.10;;;;;;;-1.03;100.00;98976.84;5140153;28;20051;-65
2023/04/03 03:12:45;;;;;;;3.05;1.25;;;;;;;-1.21;100.00;98932.72;5140144;28;20062;-61
2023/04/03 03:15:12;;;;;;;1.45;1.35;;;;;;;-1.10;100.00;98927.19;5140266;28;20062;-64
2023/04/03 03:17:38;;;;;;;2.40;1.60;;;;;;;-0.85;100.00;98932.16;5140274;28;20200;-62
2023/04/03 03:20:04;;;;;;;0.93;0.93;;;;;;;-1.03;100.00;98890.75;5140168;28;20051;-64
2023/04/03 03:22:31;;;;;;;2.22;1.38;;;;;;;-1.16;100.00;98882.66;5140358;28;20386;-60
2023/04/03 03:24:57;;;;;;;1.77;1.52;;;;;;;-1.06;100.00;98874.41;5139994;28;20043;-60
2023/04/03 03:27:23;;;;;;;1.58;1.48;;;;;;;-1.10;100.00;98843.78;5140275;28;20327;-57
2023/04/03 03:29:49;;;;;;;2.40;1.58;;;;;;;-0.86;100.00;98843.66;5139973;28;20072;-65
2023/04/03 03:32:16;;;;;;;2.47;1.17;;;;;;;-0.83;100.00;98824.22;5140240;28;20051;-60
2023/04/03 03:34:42;;;;;;;1.25;1.02;;;;;;;-0.95;100.00;98808.53;5139827;27;20047;-60
2023/04/03 03:37:08;;;;;;;2.00;1.23;;;;;;;-1.21;100.00;98840.47;5140047;28;20047;-57
2023/04/03 03:39:34;;;;;;;4.03;1.05;;;;;;;-1.53;100.00;98820.56;5139901;28;20104;-58
2023/04/03 03:42:00;;;;;;;1.67;1.25;;;;;;;-1.46;100.00;98855.94;5139690;27;20325;-55
2023/04/03 03:44:26;;;;;;;2.30;1.58;;;;;;;-1.52;100.00;98853.63;5139177;28;20434;-62
2023/04/03 03:46:52;;;;;;;1.73;1.58;;;;;;;-1.39;100.00;98850.19;5139571;28;20059;-64
2023/04/03 03:49:18;;;;;;;1.00;1.00;;;;;;;-1.43;100.00;98868.00;5139798;28;20047;-63
2023/04/03 03:51:44;;;;;;;2.05;1.42;;;;;;;-1.41;100.00;98914.22;5139632;28;20069;-64
2023/04/03 03:54:10;;;;;;;2.67;1.63;;;;;;;-1.45;100.00;98934.72;5139833;28;20488;-63
2023/04/03 03:56:36;;;;;;;1.67;1.50;;;;;;;-1.34;100.00;98948.78;5139471;28;20134;-58
2023/04/03 03:59:02;;;;;;;1.35;1.25;;;;;;;-1.43;100.00;98933.34;5139825;28;20476;-59
2023/04/03 04:01:28;;;;;;;1.90;1.10;;;;;;;-1.24;100.00;98922.53;5139275;28;20452;-64
2023/04/03 04:03:54;;;;;;;3.83;1.85;;;;;;;-1.19;100.00;98874.06;5139819;28;20058;-62
2023/04/03 04:06:21;;;;;;;1.48;1.33;;;;;;;-1.22;100.00;98839.69;5139245;27;20066;-57
2023/04/03 04:08:47;;;;;;;1.40;1.30;;;;;;;-1.40;100.00;98871.97;5139402;28;20047;-58
2023/04/03 04:11:13;;;;;;;5.75;1.70;;;;;;;-1.27;100.00;98909.69;5139483;28;20138;-61
2023/04/03 04:13:40;;;;;;;1.92;1.60;;;;;;;-1.66;100.00;98858.94;5139986;28;20051;-59
2023/04/03 04:16:07;;;;;;;2.13;1.48;;;;;;;-1.43;100.00;98873.38;5143080;28;20058;-53
2023/04/03 04:18:33;;;;;;;1.38;1.20;;;;;;;-1.16;100.00;98899.56;5141788;28;20129;-61
2023/04/03 04:20:59;;;;;;;1.95;1.65;;;;;;;-1.23;100.00;98872.25;5139274;28;20047;-64
2023/04/03 04:23:26;;;;;;;1.73;1.35;;;;;;;-1.29;100.00;98841.16;5139013;28;20078;-57
2023/04/03 04:25:52;;;;;;;1.60;1.50;;;;;;;-1.34;100.00;98854.69;5139284;28;20055;-60
2023/04/03 04:28:18;;;;;;;1.50;1.30;;;;;;;-1.19;100.00;98873.25;5138977;28;20399;-60
2023/04/03 04:30:44;;;;;;;1.60;1.50;;;;;;;-1.53;100.00;98847.44;5139227;28;20057;-61
2023/04/03 04:33:11;;;;;;;2.05;1.55;;;;;;;-1.38;100.00;98885.94;5138801;28;20448;-63
2023/04/03 04:35:37;;;;;;;2.95;1.30;;;;;;;-1.11;100.00;98933.66;5139064;27;20043;-59
2023/04/03 04:38:04;;;;;;;1.17;1.08;;;;;;;-1.25;100.00;98888.69;5138970;28;20043;-64
2023/04/03 04:40:31;;;;;;;1.73;1.48;;;;;;;-1.40;100.00;98851.25;5138920;28;20047;-61
2023/04/03 04:42:57;;;;;;;1.90;1.23;;;;;;;-1.50;100.00;98862.19;5138627;28;20103;-58
2023/04/03 04:45:22;;;;;;;3.03;1.55;;;;;;;-1.28;100.00;98901.91;5138504;28;20083;-60
2023/04/03 04:47:51;;;;;;;1.50;1.40;;;;;;;-1.16;100.00;98915.72;5138760;28;20093;-63
2023/04/03 04:50:17;;;;;;;6.03;2.42;;;;;;;-1.40;100.00;98880.03;5138294;28;20059;-62
2023/04/03 04:52:43;;;;;;;1.50;1.40;;;;;;;-1.64;100.00;98894.38;5138695;28;20133;-61
2023/04/03 04:55:09;;;;;;;2.97;1.52;;;;;;;-1.47;100.00;98904.63;5137145;27;20204;-60
2023/04/03 04:57:36;;;;;;;1.73;1.63;;;;;;;-1.47;100.00;98921.53;5138435;28;20164;-54
2023/04/03 05:00:03;;;;;;;2.20;1.13;;;;;;;-1.23;100.00;98943.00;5138130;28;20142;-58
2023/04/03 05:02:30;;;;;;;2.45;1.08;;;;;;;-1.28;100.00;98931.50;5138676;28;20058;-60
2023/04/03 05:04:56;;;;;;;2.35;1.45;;;;;;;-1.38;100.00;98940.50;5137918;27;20043;-61
2023/04/03 05:07:22;;;;;;;2.33;1.52;;;;;;;-1.28;100.00;98977.22;5138146;28;20055;-63
2023/04/03 05:09:48;;;;;;;4.80;1.92;;;;;;;-1.25;100.00;99041.19;5138216;28;20138;-63
2023/04/03 05:12:14;;;;;;;3.53;1.80;;;;;;;-1.01;100.00;99057.25;5138019;28;20047;-58
2023/04/03 05:14:40;;;;;;;2.38;1.60;;;;;;;-1.21;100.00;99018.00;5137720;28;20154;-61
2023/04/03 05:17:14;;;;;;;1.67;1.58;;;;;;;-1.03;100.00;99025.28;5217835;27;20151;-60
2023/04/03 05:19:40;;;;;;;2.80;1.58;;;;;;;-1.15;100.00;98991.84;5196114;27;20062;-60
2023/04/03 05:22:06;;;;;;;3.30;1.40;;;;;;;-1.10;100.00;98995.25;5196326;27;20046;-59
2023/04/03 05:24:32;;;;;;;3.00;1.70;;;;;;;-1.08;100.00;99017.28;5196671;27;20141;-62
2023/04/03 05:26:58;;;;;;;1.30;0.77;;;;;;;-1.00;100.00;99031.94;5196362;27;20061;-60
2023/04/03 05:29:24;;;;;;;3.97;1.60;;;;;;;-1.20;100.00;99022.28;5196607;27;20046;-56
2023/04/03 05:31:51;;;;;;;2.25;1.48;;;;;;;-1.20;100.00;98992.69;5196073;27;20113;-62
2023/04/03 05:34:17;;;;;;;3.30;2.22;;;;;;;-1.31;100.00;98988.56;5196368;27;20042;-61
2023/04/03 05:36:43;;;;;;;1.48;1.38;;;;;;;-1.32;100.00;98965.44;5175694;27;20141;-58
2023/04/03 05:39:09;;;;;;;5.68;1.17;;;;;;;-1.09;100.00;98964.56;5175343;27;20046;-62
2023/04/03 05:41:35;;;;;;;2.50;1.40;;;;;;;-1.13;100.00;98914.31;5175077;27;20047;-65
2023/04/03 05:44:01;;;;;;;4.43;1.98;;;;;;;0.26;100.00;99077.78;5174917;27;20046;-68
2023/04/03 05:46:27;;;;;;;3.40;2.08;;;;;;;-0.09;100.00;98846.41;5174933;27;20052;-69
2023/04/03 05:48:53;;;;;;;4.28;1.30;;;;;;;0.01;100.00;98691.00;5175418;27;20054;-70
2023/04/03 05:51:23;;;;;;;3.85;1.98;;;;;;;-0.15;100.00;98577.41;5174748;27;20456;-64
2023/04/03 05:53:55;;;;;;;4.28;2.15;;;;;;;-0.22;100.00;98561.69;5174713;27;20149;-61
2023/04/03 05:56:21;;;;;;;3.47;1.95;;;;;;;-0.66;100.00;98530.97;5174789;27;20149;-66
2023/04/03 05:58:47;;;;;;;3.28;1.67;;;;;;;-0.46;100.00;98543.16;5174426;27;20404;-68
2023/04/03 06:01:13;;;;;;;2.45;1.88;;;;;;;-0.75;100.00;98552.44;5174953;27;20426;-66
2023/04/03 06:03:40;;;;;;;2.25;1.60;;;;;;;-0.88;100.00;98571.34;5174470;27;20430;-60
2023/04/03 06:06:07;;;;;;;3.08;1.60;;;;;;;-0.78;100.00;98592.63;5174719;27;20410;-64
2023/04/03 06:08:34;;;;;;;1.75;1.08;;;;;;;-0.66;100.00;98586.72;5174368;27;20073;-66
2023/04/03 06:11:01;;;;;;;4.32;1.45;;;;;;;-0.82;100.00;98594.34;5174763;27;20050;-59
2023/04/03 06:13:28;;;;;;;2.00;1.30;;;;;;;-0.99;100.00;98598.47;5174190;27;20050;-62
2023/04/03 06:15:54;;;;;;;5.85;1.60;;;;;;;-0.88;100.00;98622.47;5174017;27;20141;-61
2023/04/03 06:18:20;;;;;;;3.78;1.50;;;;;;;-0.85;100.00;98621.88;5173776;27;20142;-61
2023/04/03 06:20:46;;;;;;;1.70;1.48;;;;;;;-0.78;100.00;98647.25;5174209;27;20065;-64
2023/04/03 06:23:12;;;;;;;2.33;1.55;;;;;;;-0.64;100.00;98660.69;5173737;27;20170;-61
2023/04/03 06:25:38;;;;;;;1.38;1.27;;;;;;;-0.43;100.00;98635.97;5174294;27;20146;-57
2023/04/03 06:28:05;;;;;;;1.40;1.30;;;;;;;-0.62;100.00;98574.25;5163114;27;20050;-65
2023/04/03 06:30:31;;;;;;;3.60;1.77;;;;;;;-0.72;100.00;98575.28;5160461;27;20051;-61
2023/04/03 06:32:57;;;;;;;1.52;1.40;;;;;;;-0.60;100.00;98580.09;5160142;27;20099;-59
2023/04/03 06:35:23;;;;;;;2.05;1.10;;;;;;;-0.82;100.00;98556.66;5159977;27;20058;-57
2023/04/03 06:37:49;;;;;;;3.17;1.15;;;;;;;-1.06;100.00;98565.81;5160147;27;20054;-60
2023/04/03 06:40:20;;;;;;;2.42;1.48;;;;;;;-0.91;100.00;98590.78;5160288;27;20142;-56
2023/04/03 06:42:47;;;;;;;2.22;1.20;;;;;;;-0.65;100.00;98574.84;5159946;27;20412;-62
2023/04/03 06:45:13;;;;;;;1.60;1.23;;;;;;;-0.66;100.00;98565.97;5159938;27;20054;-63
2023/04/03 06:47:39;;;;;;;1.35;1.20;;;;;;;-0.63;100.00;98545.72;5160160;27;20061;-59
2023/04/03 06:50:07;;;;;;;7.72;2.13;;;;;;;-0.60;100.00;98513.63;5160105;27;20284;-59
2023/04/03 06:52:33;;;;;;;2.97;1.65;;;;;;;-0.35;100.00;98484.44;5159887;27;20427;-61
2023/04/03 06:54:59;;;;;;;3.65;1.90;;;;;;;-0.52;100.00;98459.00;5159992;27;20050;-58
2023/04/03 06:57:25;;;;;;;3.17;1.30;;;;;;;-0.44;100.00;98456.66;5159941;27;20061;-58
2023/04/03 06:59:52;;;;;;;4.25;1.80;;;;;;;-0.06;100.00;98484.72;5160110;27;20042;-59
2023/04/03 07:02:17;;;;;;;1.63;1.50;;;;;;;-0.44;100.00;98441.28;5159764;27;20122;-61
2023/04/03 07:04:43;;;;;;;3.65;1.65;;;;;;;-0.27;100.00;98436.00;5160029;27;20137;-63
2023/04/03 07:07:09;;;;;;;1.98;1.50;;;;;;;-0.51;100.00;98427.50;5159660;27;20123;-61
2023/04/03 07:09:35;;;;;;;2.72;2.00;;;;;;;-0.07;100.00;98444.59;5160067;27;20192;-64
2023/04/03 07:12:01;;;;;;;2.80;0.82;;;;;;;0.02;100.00;98420.41;5159611;27;20062;-61
2023/04/03 07:14:27;;;;;;;3.78;2.15;;;;;;;-0.20;100.00;98429.34;5159767;27;20133;-58
2023/04/03 07:16:54;;;;;;;3.80;2.15;;;;;;;-0.16;100.00;98419.56;5159694;27;20320;-58
2023/04/03 07:19:21;;;;;;;3.38;1.23;;;;;;;-0.17;100.00;98413.34;5159636;27;20061;-60
2023/04/03 07:21:47;;;;;;;1.95;1.33;;;;;;;-0.22;100.00;98421.59;5159513;27;20050;-63
2023/04/03 07:24:13;;;;;;;1.42;1.25;;;;;;;-0.37;100.00;98412.00;5159334;27;20046;-65
2023/04/03 07:26:39;;;;;;;2.40;1.30;;;;;;;-0.37;100.00;98409.31;5159624;27;20367;-62
2023/04/03 07:29:05;;;;;;;1.80;1.13;;;;;;;-0.33;100.00;98406.84;5159479;27;20173;-61
2023/04/03 07:31:31;;;;;;;6.57;1.60;;;;;;;-0.24;100.00;98418.41;5159630;27;20057;-64
2023/04/03 07:33:57;;;;;;;3.78;1.60;;;;;;;-0.22;100.00;98410.81;5159167;27;20114;-66
2023/04/03 07:36:24;;;;;;;4.45;2.15;;;;;;;-0.47;100.00;98409.59;5159754;27;20088;-65
2023/04/03 07:38:49;;;;;;;2.70;1.10;;;;;;;-0.29;100.00;98424.75;5157833;27;20046;-62
2023/04/03 07:41:18;;;;;;;2.38;1.33;;;;;;;-0.26;100.00;98421.44;5158783;27;20409;-62
2023/04/03 07:43:44;;;;;;;4.18;1.55;;;;;;;-0.10;100.00;98423.69;5162475;27;20163;-61
2023/04/03 07:46:10;;;;;;;4.97;1.95;;;;;;;-0.14;100.00;98422.72;5162960;27;20162;-62
2023/04/03 07:48:36;;;;;;;1.58;1.45;;;;;;;-0.06;100.00;98416.59;5159095;27;20065;-62
2023/04/03 07:51:04;;;;;;;2.85;1.20;;;;;;;-0.12;100.00;98423.22;5158950;27;20353;-65
2023/04/03 07:53:31;;;;;;;1.30;1.20;;;;;;;0.35;100.00;98428.88;5158826;27;20137;-62
2023/04/03 07:56:00;;;;;;;3.83;1.40;;;;;;;0.32;100.00;98416.81;5158758;27;20050;-66
2023/04/03 07:58:26;;;;;;;3.65;1.63;;;;;;;-0.16;100.00;98431.13;5159163;27;20567;-62
2023/04/03 08:00:52;;;;;;;1.83;1.13;;;;;;;-0.06;100.00;98428.16;5158819;27;20047;-64
2023/04/03 08:03:18;;;;;;;4.18;1.30;;;;;;;-0.18;100.00;98436.03;5159220;27;20314;-63
2023/04/03 08:05:46;;;;;;;2.67;1.63;;;;;;;-0.08;100.00;98432.25;5158499;27;20142;-64
2023/04/03 08:08:16;;;;;;;1.75;1.10;;;;;;;0.07;100.00;98442.63;5159126;27;20138;-62
2023/04/03 08:10:42;;;;;;;1.65;1.30;;;;;;;-0.12;100.00;98450.16;5158576;27;20050;-61
2023/04/03 08:13:09;;;;;;;2.58;1.23;;;;;;;-0.12;100.00;98461.72;5158503;27;20042;-65
2023/04/03 08:15:35;;;;;;;2.22;1.00;;;;;;;0.37;100.00;98461.72;5158618;27;20073;-63
2023/04/03 08:18:02;;;;;;;0.70;0.70;;;;;;;0.33;100.00;98496.56;5158608;27;20074;-64
2023/04/03 08:20:28;;;;;;;2.42;1.23;;;;;;;0.39;100.00;98505.31;5158768;27;20086;-62
2023/04/03 08:22:55;;;;;;;4.57;1.38;;;;;;;0.60;100.00;98516.28;5158340;27;20475;-66
2023/04/03 08:25:21;;;;;;;5.53;1.52;;;;;;;0.31;100.00;98536.56;5158588;27;20110;-62
2023/04/03 08:27:48;;;;;;;2.75;1.05;;;;;;;0.44;100.00;98557.22;5158296;27;20109;-64
2023/04/03 08:30:14;;;;;;;6.20;1.17;;;;;;;0.26;100.00;98577.13;5158624;27;20133;-66
2023/04/03 08:32:41;;;;;;;2.25;1.38;;;;;;;0.45;100.00;98566.09;5158303;27;20233;-61
2023/04/03 08:35:08;;;;;;;1.65;1.10;;;;;;;0.35;100.00;98571.78;5158551;27;20195;-60
2023/04/03 08:37:36;;;;;;;2.20;1.23;;;;;;;0.11;100.00;98602.59;5158178;27;20072;-62
2023/04/03 08:40:02;;;;;;;1.25;1.13;;;;;;;0.85;100.00;98583.00;5158164;27;20055;-67
2023/04/03 08:42:42;;;;;;;2.10;1.30;;;;;;;0.99;100.00;98609.06;5158465;27;20074;-65
2023/04/03 08:45:12;;;;;;;1.63;1.38;;;;;;;0.81;100.00;98644.13;5158290;27;20050;-62
2023/04/03 08:47:42;;;;;;;2.42;1.10;;;;;;;0.74;100.00;98645.69;5158291;27;20050;-66
2023/04/03 08:50:13;;;;;;;1.85;1.15;;;;;;;0.69;100.00;98657.41;5157715;27;20487;-65
2023/04/03 08:52:42;;;;;;;0.88;0.85;;;;;;;0.92;100.00;98658.13;5158237;27;20056;-66
2023/04/03 08:55:19;;;;;;;7.95;1.92;;;;;;;0.65;100.00;98676.13;5157699;27;20046;-65
2023/04/03 08:57:48;;;;;;;0.80;0.80;;;;;;;1.15;100.00;98675.00;5158126;27;20093;-61
2023/04/03 09:00:20;;;;;;;1.20;1.10;;;;;;;0.80;100.00;98674.91;5157504;27;20413;-63
2023/04/03 09:02:47;;;;;;;1.48;1.25;;;;;;;1.16;100.00;98646.88;5157885;27;20190;-65
2023/04/03 09:05:16;;;;;;;2.90;1.35;;;;;;;1.21;100.00;98665.66;5157934;27;20054;-67
2023/04/03 09:07:45;;;;;;;6.85;1.23;;;;;;;1.35;100.00;98685.22;5157912;27;20046;-61
2023/04/03 09:10:13;;;;;;;1.60;1.10;;;;;;;0.88;100.00;98692.25;5157995;27;20046;-63
2023/04/03 09:12:42;;;;;;;2.20;1.10;;;;;;;1.22;100.00;98685.34;5157643;27;20130;-59
2023/04/03 09:15:18;;;;;;;4.18;1.60;;;;;;;1.15;100.00;98658.81;5157885;27;20053;-66
2023/04/03 09:17:57;;;;;;;0.95;0.95;;;;;;;0.91;100.00;98689.72;5157600;27;20042;-63
2023/04/03 09:20:36;;;;;;;1.48;1.35;;;;;;;1.32;100.00;98629.13;5157964;27;20098;-63
2023/04/03 09:23:13;;;;;;;2.60;1.30;;;;;;;1.23;100.00;98682.31;5157818;27;20154;-66
2023/04/03 09:25:39;;;;;;;2.60;1.17;;;;;;;1.58;100.00;98656.16;5157756;27;20114;-62
2023/04/03 09:28:09;;;;;;;0.80;0.80;;;;;;;1.87;100.00;98677.13;5157623;27;20424;-66
2023/04/03 09:30:36;;;;;;;1.92;1.15;;;;;;;1.62;100.00;98688.72;5157277;27;20050;-61
2023/04/03 09:33:02;;;;;;;5.88;1.15;;;;;;;1.46;100.00;98731.63;5157654;27;20051;-60
2023/04/03 09:35:31;;;;;;;2.90;1.20;;;;;;;1.39;100.00;98715.88;5157267;27;20106;-61
2023/04/03 09:38:00;;;;;;;2.28;1.10;;;;;;;1.94;100.00;98701.00;5157779;27;20293;-64
2023/04/03 09:40:35;;;;;;;1.95;1.05;;;;;;;2.00;100.00;98707.81;5157311;27;20153;-63
2023/04/03 09:43:02;;;;;;;1.17;0.95;;;;;;;1.94;100.00;98738.03;5157581;27;20043;-68
2023/04/03 09:45:30;;;;;;;1.38;1.27;;;;;;;1.88;100.00;98746.28;5157363;27;20090;-67
2023/04/03 09:48:08;;;;;;;1.60;1.25;;;;;;;1.78;100.00;98716.09;5157490;27;20055;-63
2023/04/03 09:50:35;;;;;;;2.85;1.38;;;;;;;1.97;100.00;98719.28;5157482;27;20086;-64
2023/04/03 09:53:06;;;;;;;0.68;0.68;;;;;;;2.16;100.00;98767.59;5157359;27;20050;-64
2023/04/03 09:55:41;;;;;;;2.05;0.90;;;;;;;1.76;100.00;98758.84;5157383;27;20448;-63
2023/04/03 09:58:24;;;;;;;2.40;1.20;;;;;;;1.85;100.00;98741.53;5157289;27;20047;-67
2023/04/03 10:00:54;;;;;;;1.10;1.08;;;;;;;2.27;100.00;98751.88;5157654;27;20146;-63
2023/04/03 10:03:26;;;;;;;2.05;0.90;;;;;;;1.98;100.00;98820.09;5160000;27;20330;-59
2023/04/03 10:05:54;;;;;;;0.90;0.77;;;;;;;1.25;100.00;98817.81;5160642;27;20061;-59
2023/04/03 10:08:23;;;;;;;6.05;1.23;;;;;;;1.75;100.00;98776.19;5160657;27;20145;-61
2023/04/03 10:11:10;;;;;;;4.10;1.35;;;;;;;1.67;100.00;98776.94;5161040;27;20050;-66
2023/04/03 10:13:36;;;;;;;1.30;1.20;;;;;;;1.49;100.00;98782.31;5160922;27;20141;-65
2023/04/03 10:16:07;;;;;;;5.20;1.30;;;;;;;1.71;100.00;98772.53;5160395;27;20514;-65
2023/04/03 10:18:42;;;;;;;1.52;1.02;;;;;;;1.75;100.00;98785.06;5160680;27;20082;-68
2023/04/03 10:21:14;;;;;;;1.80;1.70;;;;;;;1.85;100.00;98789.38;5160289;27;20086;-62
2023/04/03 10:23:45;;;;;;;3.05;1.27;;;;;;;1.76;100.00;98788.56;5160698;27;20145;-62
2023/04/03 10:26:23;;;;;;;2.50;1.10;;;;;;;1.98;100.00;98795.78;5160696;27;20051;-66
2023/04/03 10:28:57;;;;;;;2.35;1.27;;;;;;;1.73;100.00;98772.97;5160321;27;20047;-64
2023/04/03 10:31:35;;;;;;;0.98;0.75;;;;;;;1.74;100.00;98790.81;5160641;27;20050;-68
2023/04/03 10:34:06;;;;;;;7.28;0.93;;;;;;;1.67;100.00;98777.75;5160087;27;20050;-62
2023/04/03 10:36:38;;;;;;;1.33;0.82;;;;;;;1.58;100.00;98790.44;5160725;27;20057;-67
2023/04/03 10:39:19;;;;;;;1.40;1.10;;;;;;;1.54;100.00;98786.78;5160000;27;20137;-68
2023/04/03 10:41:57;;;;;;;1.20;1.10;;;;;;;1.71;100.00;98776.03;5160216;27;20054;-62
2023/04/03 10:44:36;;;;;;;1.40;1.30;;;;;;;1.49;100.00;98792.31;5160004;27;20133;-64
2023/04/03 10:47:07;;;;;;;2.00;1.13;;;;;;;1.53;100.00;98798.69;5160030;27;20379;-65
2023/04/03 10:49:46;;;;;;;3.60;1.65;;;;;;;1.53;100.00;98771.69;5160299;27;20121;-61
2023/04/03 10:52:20;;;;;;;1.88;1.02;;;;;;;1.28;100.00;98797.50;5160193;27;20050;-68
2023/04/03 10:54:55;;;;;;;1.05;1.05;;;;;;;1.51;100.00;98790.13;5160288;27;20050;-65
2023/04/03 10:57:24;;;;;;;0.80;0.80;;;;;;;1.63;100.00;98801.91;5159684;27;20459;-64
2023/04/03 10:59:53;;;;;;;0.70;0.70;;;;;;;1.49;100.00;98805.84;5159661;27;20050;-65
2023/04/03 11:02:24;;;;;;;3.60;1.35;;;;;;;1.73;100.00;98833.22;5159977;27;20110;-67
2023/04/03 11:04:55;;;;;;;2.05;1.00;;;;;;;1.84;100.00;98831.06;5159761;27;20046;-68
2023/04/03 11:07:24;;;;;;;1.90;1.38;;;;;;;1.75;100.00;98851.84;5160303;27;20047;-66
2023/04/03 11:09:53;;;;;;;4.78;1.42;;;;;;;1.47;100.00;98868.28;5162867;27;20224;-61
2023/04/03 11:12:26;;;;;;;2.22;1.02;;;;;;;1.39;100.00;98842.81;5163626;27;20082;-63
2023/04/03 11:14:55;;;;;;;2.78;1.10;;;;;;;1.31;100.00;98851.69;5159717;27;20426;-66
2023/04/03 11:17:31;;;;;;;1.48;1.05;;;;;;;1.79;100.00;98831.19;5159879;27;20096;-64
2023/04/03 11:20:06;;;;;;;3.30;1.10;;;;;;;1.50;100.00;98843.38;5159634;27;20060;-60
2023/04/03 11:22:36;;;;;;;1.83;1.13;;;;;;;2.00;100.00;98839.50;5159380;27;20475;-67
2023/04/03 11:25:07;;;;;;;3.08;1.23;;;;;;;1.83;100.00;98864.56;5159643;27;20066;-63
2023/04/03 11:27:40;;;;;;;1.55;1.00;;;;;;;1.91;100.00;98890.06;5159242;27;20103;-64
2023/04/03 11:30:17;;;;;;;6.47;1.30;;;;;;;1.55;100.00;98926.16;5159621;27;20050;-62